sensor_id;sensor_type;location;lat;lon;timestamp;P1;durP1;ratioP1;P2;durP2;ratioP2
19826;SDS011;10074;52.018;4.726;2023-10-13T00:04:20;0.90;;;0.85;;
19826;SDS011;10074;52.018;4.726;2023-10-13T00:09:25;2.95;;;1.30;;
19826;SDS011;10074;52.018;4.726;2023-10-13T00:14:34;2.22;;;1.70;;
19826;SDS011;10074;52.018;4.726;2023-10-13T00:19:36;2.63;;;1.95;;
19826;SDS011;10074;52.018;4.726;2023-10-13T00:24:40;2.80;;;1.90;;
19826;SDS011;10074;52.018;4.726;2023-10-13T00:29:48;2.88;;;2.00;;
19826;SDS011;10074;52.018;4.726;2023-10-13T00:34:50;1.10;;;1.00;;
19826;SDS011;10074;52.018;4.726;2023-10-13T00:39:56;2.50;;;1.27;;
19826;SDS011;10074;52.018;4.726;2023-10-13T00:45:00;2.45;;;1.52;;
19826;SDS011;10074;52.018;4.726;2023-10-13T00:50:01;2.30;;;1.38;;
19826;SDS011;10074;52.018;4.726;2023-10-13T00:55:02;1.45;;;1.35;;
19826;SDS011;10074;52.018;4.726;2023-10-13T01:00:05;1.58;;;1.48;;
19826;SDS011;10074;52.018;4.726;2023-10-13T01:05:19;5.70;;;2.35;;
19826;SDS011;10074;52.018;4.726;2023-10-13T01:10:20;2.05;;;1.85;;
19826;SDS011;10074;52.018;4.726;2023-10-13T01:15:26;2.08;;;1.67;;
19826;SDS011;10074;52.018;4.726;2023-10-13T01:20:33;5.43;;;1.92;;
19826;SDS011;10074;52.018;4.726;2023-10-13T01:25:44;3.60;;;1.60;;
19826;SDS011;10074;52.018;4.726;2023-10-13T01:30:45;8.05;;;2.33;;
19826;SDS011;10074;52.018;4.726;2023-10-13T01:35:52;2.67;;;1.40;;
19826;SDS011;10074;52.018;4.726;2023-10-13T01:40:55;2.97;;;1.50;;
19826;SDS011;10074;52.018;4.726;2023-10-13T01:45:56;1.83;;;1.50;;
19826;SDS011;10074;52.018;4.726;2023-10-13T01:50:57;1.60;;;1.50;;
19826;SDS011;10074;52.018;4.726;2023-10-13T01:56:00;1.50;;;1.17;;
19826;SDS011;10074;52.018;4.726;2023-10-13T02:01:05;0.65;;;0.65;;
19826;SDS011;10074;52.018;4.726;2023-10-13T02:06:07;1.50;;;1.40;;
19826;SDS011;10074;52.018;4.726;2023-10-13T02:11:10;1.70;;;1.60;;
19826;SDS011;10074;52.018;4.726;2023-10-13T02:16:10;6.38;;;1.65;;
19826;SDS011;10074;52.018;4.726;2023-10-13T02:21:11;3.70;;;1.38;;
19826;SDS011;10074;52.018;4.726;2023-10-13T02:26:17;1.10;;;1.00;;
19826;SDS011;10074;52.018;4.726;2023-10-13T02:31:30;3.65;;;1.48;;
19826;SDS011;10074;52.018;4.726;2023-10-13T02:36:30;1.98;;;1.63;;
19826;SDS011;10074;52.018;4.726;2023-10-13T02:42:00;1.30;;;1.20;;
19826;SDS011;10074;52.018;4.726;2023-10-13T02:47:00;3.13;;;1.77;;
19826;SDS011;10074;52.018;4.726;2023-10-13T02:52:01;3.15;;;2.17;;
19826;SDS011;10074;52.018;4.726;2023-10-13T02:57:07;3.90;;;1.30;;
19826;SDS011;10074;52.018;4.726;2023-10-13T03:02:07;2.05;;;1.42;;
19826;SDS011;10074;52.018;4.726;2023-10-13T03:07:28;1.52;;;1.08;;
19826;SDS011;10074;52.018;4.726;2023-10-13T03:12:29;2.38;;;1.25;;
19826;SDS011;10074;52.018;4.726;2023-10-13T03:17:34;4.78;;;2.13;;
19826;SDS011;10074;52.018;4.726;2023-10-13T03:22:34;1.13;;;0.80;;
19826;SDS011;10074;52.018;4.726;2023-10-13T03:27:36;4.18;;;1.95;;
19826;SDS011;10074;52.018;4.726;2023-10-13T03:32:48;2.00;;;1.02;;
19826;SDS011;10074;52.018;4.726;2023-10-13T03:37:54;2.05;;;1.33;;
19826;SDS011;10074;52.018;4.726;2023-10-13T03:42:55;2.20;;;1.60;;
19826;SDS011;10074;52.018;4.726;2023-10-13T03:48:13;0.98;;;0.95;;
19826;SDS011;10074;52.018;4.726;2023-10-13T03:53:24;1.38;;;0.95;;
19826;SDS011;10074;52.018;4.726;2023-10-13T03:58:33;5.05;;;1.10;;
19826;SDS011;10074;52.018;4.726;2023-10-13T04:03:42;1.08;;;0.88;;
19826;SDS011;10074;52.018;4.726;2023-10-13T04:09:03;3.25;;;0.90;;
19826;SDS011;10074;52.018;4.726;2023-10-13T04:14:23;3.33;;;1.60;;
19826;SDS011;10074;52.018;4.726;2023-10-13T04:19:44;2.03;;;1.15;;
19826;SDS011;10074;52.018;4.726;2023-10-13T04:25:03;2.50;;;1.10;;
19826;SDS011;10074;52.018;4.726;2023-10-13T04:30:24;1.50;;;1.40;;
19826;SDS011;10074;52.018;4.726;2023-10-13T04:35:27;1.67;;;1.58;;
19826;SDS011;10074;52.018;4.726;2023-10-13T04:40:34;1.63;;;1.27;;
19826;SDS011;10074;52.018;4.726;2023-10-13T04:45:41;1.38;;;1.23;;
19826;SDS011;10074;52.018;4.726;2023-10-13T04:50:58;2.03;;;1.42;;
19826;SDS011;10074;52.018;4.726;2023-10-13T04:56:19;2.25;;;2.05;;
19826;SDS011;10074;52.018;4.726;2023-10-13T05:01:42;5.70;;;1.25;;
19826;SDS011;10074;52.018;4.726;2023-10-13T05:07:01;2.28;;;1.85;;
19826;SDS011;10074;52.018;4.726;2023-10-13T05:12:20;4.47;;;1.85;;
19826;SDS011;10074;52.018;4.726;2023-10-13T05:17:39;3.83;;;2.70;;
19826;SDS011;10074;52.018;4.726;2023-10-13T05:22:58;2.53;;;2.05;;
19826;SDS011;10074;52.018;4.726;2023-10-13T05:28:17;2.58;;;1.92;;
19826;SDS011;10074;52.018;4.726;2023-10-13T05:33:36;4.30;;;2.38;;
19826;SDS011;10074;52.018;4.726;2023-10-13T05:38:55;1.27;;;1.17;;
19826;SDS011;10074;52.018;4.726;2023-10-13T05:44:14;5.82;;;1.75;;
19826;SDS011;10074;52.018;4.726;2023-10-13T05:49:33;4.25;;;2.45;;
19826;SDS011;10074;52.018;4.726;2023-10-13T05:54:50;2.47;;;1.40;;
19826;SDS011;10074;52.018;4.726;2023-10-13T06:00:09;1.52;;;1.40;;
19826;SDS011;10074;52.018;4.726;2023-10-13T06:05:29;11.40;;;2.67;;
19826;SDS011;10074;52.018;4.726;2023-10-13T06:10:48;2.35;;;1.83;;
19826;SDS011;10074;52.018;4.726;2023-10-13T06:16:11;6.18;;;1.95;;
19826;SDS011;10074;52.018;4.726;2023-10-13T06:21:31;2.50;;;1.80;;
19826;SDS011;10074;52.018;4.726;2023-10-13T06:26:50;4.75;;;2.35;;
19826;SDS011;10074;52.018;4.726;2023-10-13T06:32:10;1.38;;;1.23;;
19826;SDS011;10074;52.018;4.726;2023-10-13T06:37:12;3.33;;;1.42;;
19826;SDS011;10074;52.018;4.726;2023-10-13T06:42:30;7.85;;;2.92;;
19826;SDS011;10074;52.018;4.726;2023-10-13T06:47:34;2.13;;;1.55;;
19826;SDS011;10074;52.018;4.726;2023-10-13T06:52:43;10.07;;;2.35;;
19826;SDS011;10074;52.018;4.726;2023-10-13T06:57:43;5.32;;;2.17;;
19826;SDS011;10074;52.018;4.726;2023-10-13T07:02:44;3.53;;;2.05;;
19826;SDS011;10074;52.018;4.726;2023-10-13T07:07:46;1.98;;;1.77;;
19826;SDS011;10074;52.018;4.726;2023-10-13T07:12:48;1.73;;;1.63;;
19826;SDS011;10074;52.018;4.726;2023-10-13T07:17:53;4.45;;;2.22;;
19826;SDS011;10074;52.018;4.726;2023-10-13T07:22:59;4.35;;;3.33;;
19826;SDS011;10074;52.018;4.726;2023-10-13T07:28:11;11.35;;;2.40;;
19826;SDS011;10074;52.018;4.726;2023-10-13T07:33:12;2.40;;;2.05;;
19826;SDS011;10074;52.018;4.726;2023-10-13T07:38:13;4.10;;;2.35;;
19826;SDS011;10074;52.018;4.726;2023-10-13T07:43:13;3.92;;;3.42;;
19826;SDS011;10074;52.018;4.726;2023-10-13T07:48:21;12.48;;;2.28;;
19826;SDS011;10074;52.018;4.726;2023-10-13T07:53:21;6.80;;;3.33;;
19826;SDS011;10074;52.018;4.726;2023-10-13T07:58:24;28.00;;;3.08;;
19826;SDS011;10074;52.018;4.726;2023-10-13T08:03:25;6.00;;;3.15;;
19826;SDS011;10074;52.018;4.726;2023-10-13T08:08:44;4.65;;;3.00;;
19826;SDS011;10074;52.018;4.726;2023-10-13T08:13:50;3.08;;;2.08;;
19826;SDS011;10074;52.018;4.726;2023-10-13T08:18:59;4.18;;;2.65;;
19826;SDS011;10074;52.018;4.726;2023-10-13T08:24:01;5.35;;;2.53;;
19826;SDS011;10074;52.018;4.726;2023-10-13T08:29:07;6.72;;;2.75;;
19826;SDS011;10074;52.018;4.726;2023-10-13T08:34:16;6.10;;;3.38;;
19826;SDS011;10074;52.018;4.726;2023-10-13T08:39:23;4.78;;;2.60;;
19826;SDS011;10074;52.018;4.726;2023-10-13T08:44:43;8.10;;;3.45;;
19826;SDS011;10074;52.018;4.726;2023-10-13T08:49:52;18.35;;;3.85;;
19826;SDS011;10074;52.018;4.726;2023-10-13T08:55:10;8.40;;;2.72;;
19826;SDS011;10074;52.018;4.726;2023-10-13T09:00:30;4.07;;;2.65;;
19826;SDS011;10074;52.018;4.726;2023-10-13T09:06:01;23.92;;;3.38;;
19826;SDS011;10074;52.018;4.726;2023-10-13T09:11:02;5.05;;;3.90;;
19826;SDS011;10074;52.018;4.726;2023-10-13T09:16:12;10.07;;;3.67;;
19826;SDS011;10074;52.018;4.726;2023-10-13T09:21:42;2.53;;;1.83;;
19826;SDS011;10074;52.018;4.726;2023-10-13T09:26:42;5.40;;;2.55;;
19826;SDS011;10074;52.018;4.726;2023-10-13T09:31:43;6.60;;;2.70;;
19826;SDS011;10074;52.018;4.726;2023-10-13T09:36:45;7.50;;;2.40;;
19826;SDS011;10074;52.018;4.726;2023-10-13T09:41:47;7.72;;;2.50;;
19826;SDS011;10074;52.018;4.726;2023-10-13T09:46:53;12.55;;;3.15;;
19826;SDS011;10074;52.018;4.726;2023-10-13T09:52:01;3.92;;;2.83;;
19826;SDS011;10074;52.018;4.726;2023-10-13T09:57:17;5.70;;;3.28;;
19826;SDS011;10074;52.018;4.726;2023-10-13T10:02:25;6.70;;;3.25;;
19826;SDS011;10074;52.018;4.726;2023-10-13T10:07:28;5.78;;;2.67;;
19826;SDS011;10074;52.018;4.726;2023-10-13T10:17:55;2.75;;;2.30;;
19826;SDS011;10074;52.018;4.726;2023-10-13T10:22:56;11.48;;;2.67;;
19826;SDS011;10074;52.018;4.726;2023-10-13T10:28:03;22.90;;;3.25;;
19826;SDS011;10074;52.018;4.726;2023-10-13T10:33:05;3.65;;;2.03;;
19826;SDS011;10074;52.018;4.726;2023-10-13T10:38:19;3.15;;;2.75;;
19826;SDS011;10074;52.018;4.726;2023-10-13T10:48:46;4.18;;;2.40;;
19826;SDS011;10074;52.018;4.726;2023-10-13T10:53:51;4.97;;;2.70;;
19826;SDS011;10074;52.018;4.726;2023-10-13T10:58:53;10.70;;;2.67;;
19826;SDS011;10074;52.018;4.726;2023-10-13T11:04:00;4.82;;;2.80;;
19826;SDS011;10074;52.018;4.726;2023-10-13T11:09:09;3.67;;;3.38;;
19826;SDS011;10074;52.018;4.726;2023-10-13T11:14:28;7.30;;;3.25;;
19826;SDS011;10074;52.018;4.726;2023-10-13T11:19:38;5.97;;;2.75;;
19826;SDS011;10074;52.018;4.726;2023-10-13T11:24:43;8.52;;;4.13;;
19826;SDS011;10074;52.018;4.726;2023-10-13T11:29:43;4.47;;;2.65;;
19826;SDS011;10074;52.018;4.726;2023-10-13T11:34:52;8.00;;;3.10;;
19826;SDS011;10074;52.018;4.726;2023-10-13T11:39:54;5.80;;;2.72;;
19826;SDS011;10074;52.018;4.726;2023-10-13T11:44:56;4.82;;;3.17;;
19826;SDS011;10074;52.018;4.726;2023-10-13T11:50:16;7.57;;;2.90;;
19826;SDS011;10074;52.018;4.726;2023-10-13T11:55:32;4.03;;;1.98;;
19826;SDS011;10074;52.018;4.726;2023-10-13T12:00:32;9.60;;;3.15;;
19826;SDS011;10074;52.018;4.726;2023-10-13T12:05:51;6.43;;;2.90;;
19826;SDS011;10074;52.018;4.726;2023-10-13T12:11:06;11.20;;;3.50;;
19826;SDS011;10074;52.018;4.726;2023-10-13T12:21:34;3.90;;;2.40;;
19826;SDS011;10074;52.018;4.726;2023-10-13T12:26:37;9.07;;;2.80;;
19826;SDS011;10074;52.018;4.726;2023-10-13T12:31:41;4.05;;;3.00;;
19826;SDS011;10074;52.018;4.726;2023-10-13T12:36:50;7.40;;;3.17;;
19826;SDS011;10074;52.018;4.726;2023-10-13T12:42:05;6.97;;;3.60;;
19826;SDS011;10074;52.018;4.726;2023-10-13T12:47:24;11.85;;;4.28;;
19826;SDS011;10074;52.018;4.726;2023-10-13T12:52:43;6.38;;;3.10;;
19826;SDS011;10074;52.018;4.726;2023-10-13T12:57:48;6.97;;;3.10;;
19826;SDS011;10074;52.018;4.726;2023-10-13T13:02:48;10.48;;;3.22;;
19826;SDS011;10074;52.018;4.726;2023-10-13T13:07:51;6.70;;;3.28;;
19826;SDS011;10074;52.018;4.726;2023-10-13T13:12:54;7.40;;;3.83;;
19826;SDS011;10074;52.018;4.726;2023-10-13T13:17:55;6.45;;;4.07;;
19826;SDS011;10074;52.018;4.726;2023-10-13T13:22:55;5.18;;;3.90;;
19826;SDS011;10074;52.018;4.726;2023-10-13T13:27:57;5.70;;;3.90;;
19826;SDS011;10074;52.018;4.726;2023-10-13T13:32:58;7.13;;;2.85;;
19826;SDS011;10074;52.018;4.726;2023-10-13T13:38:03;4.53;;;2.70;;
19826;SDS011;10074;52.018;4.726;2023-10-13T13:43:10;4.40;;;2.80;;
19826;SDS011;10074;52.018;4.726;2023-10-13T13:48:31;7.38;;;4.35;;
19826;SDS011;10074;52.018;4.726;2023-10-13T13:53:32;14.13;;;4.13;;
19826;SDS011;10074;52.018;4.726;2023-10-13T13:58:35;11.18;;;4.30;;
19826;SDS011;10074;52.018;4.726;2023-10-13T14:03:38;4.35;;;2.67;;
19826;SDS011;10074;52.018;4.726;2023-10-13T14:08:45;3.17;;;2.50;;
19826;SDS011;10074;52.018;4.726;2023-10-13T14:13:48;11.02;;;3.33;;
19826;SDS011;10074;52.018;4.726;2023-10-13T14:18:49;3.90;;;2.33;;
19826;SDS011;10074;52.018;4.726;2023-10-13T14:23:52;4.97;;;2.65;;
19826;SDS011;10074;52.018;4.726;2023-10-13T14:28:55;4.88;;;2.42;;
19826;SDS011;10074;52.018;4.726;2023-10-13T14:34:02;5.95;;;2.88;;
19826;SDS011;10074;52.018;4.726;2023-10-13T14:39:04;8.68;;;3.97;;
19826;SDS011;10074;52.018;4.726;2023-10-13T14:44:09;6.43;;;3.05;;
19826;SDS011;10074;52.018;4.726;2023-10-13T14:49:12;4.50;;;2.15;;
19826;SDS011;10074;52.018;4.726;2023-10-13T14:54:18;6.53;;;3.05;;
19826;SDS011;10074;52.018;4.726;2023-10-13T14:59:25;9.70;;;2.58;;
19826;SDS011;10074;52.018;4.726;2023-10-13T15:04:25;4.28;;;2.60;;
19826;SDS011;10074;52.018;4.726;2023-10-13T15:09:28;4.30;;;2.08;;
19826;SDS011;10074;52.018;4.726;2023-10-13T15:14:29;3.75;;;2.38;;
19826;SDS011;10074;52.018;4.726;2023-10-13T15:19:29;4.90;;;2.50;;
19826;SDS011;10074;52.018;4.726;2023-10-13T15:24:35;2.67;;;2.10;;
19826;SDS011;10074;52.018;4.726;2023-10-13T15:29:43;4.00;;;3.13;;
19826;SDS011;10074;52.018;4.726;2023-10-13T15:34:50;2.85;;;2.22;;
19826;SDS011;10074;52.018;4.726;2023-10-13T15:39:51;3.97;;;2.95;;
19826;SDS011;10074;52.018;4.726;2023-10-13T15:44:52;5.38;;;2.60;;
19826;SDS011;10074;52.018;4.726;2023-10-13T15:49:53;3.72;;;2.47;;
19826;SDS011;10074;52.018;4.726;2023-10-13T15:54:53;9.27;;;3.53;;
19826;SDS011;10074;52.018;4.726;2023-10-13T15:59:56;5.00;;;2.78;;
19826;SDS011;10074;52.018;4.726;2023-10-13T16:04:57;7.18;;;3.10;;
19826;SDS011;10074;52.018;4.726;2023-10-13T16:09:59;3.92;;;2.30;;
19826;SDS011;10074;52.018;4.726;2023-10-13T16:15:02;3.78;;;1.83;;
19826;SDS011;10074;52.018;4.726;2023-10-13T16:20:06;5.55;;;3.17;;
19826;SDS011;10074;52.018;4.726;2023-10-13T16:25:16;3.15;;;1.95;;
19826;SDS011;10074;52.018;4.726;2023-10-13T16:30:16;11.65;;;3.33;;
19826;SDS011;10074;52.018;4.726;2023-10-13T16:35:19;4.03;;;3.15;;
19826;SDS011;10074;52.018;4.726;2023-10-13T16:40:20;3.45;;;2.47;;
19826;SDS011;10074;52.018;4.726;2023-10-13T16:45:21;3.83;;;2.75;;
19826;SDS011;10074;52.018;4.726;2023-10-13T16:50:21;6.90;;;2.35;;
19826;SDS011;10074;52.018;4.726;2023-10-13T16:55:22;12.68;;;3.90;;
19826;SDS011;10074;52.018;4.726;2023-10-13T17:00:24;5.22;;;2.95;;
19826;SDS011;10074;52.018;4.726;2023-10-13T17:05:27;5.13;;;3.70;;
19826;SDS011;10074;52.018;4.726;2023-10-13T17:10:30;5.32;;;3.17;;
19826;SDS011;10074;52.018;4.726;2023-10-13T17:15:32;5.75;;;2.47;;
19826;SDS011;10074;52.018;4.726;2023-10-13T17:20:40;8.32;;;3.83;;
19826;SDS011;10074;52.018;4.726;2023-10-13T17:25:40;4.72;;;2.05;;
19826;SDS011;10074;52.018;4.726;2023-10-13T17:30:41;6.68;;;2.78;;
19826;SDS011;10074;52.018;4.726;2023-10-13T17:35:45;6.80;;;3.13;;
19826;SDS011;10074;52.018;4.726;2023-10-13T17:40:45;4.47;;;3.10;;
19826;SDS011;10074;52.018;4.726;2023-10-13T17:45:47;8.05;;;3.97;;
19826;SDS011;10074;52.018;4.726;2023-10-13T17:50:49;6.28;;;2.17;;
19826;SDS011;10074;52.018;4.726;2023-10-13T17:55:49;2.50;;;1.92;;
19826;SDS011;10074;52.018;4.726;2023-10-13T18:00:51;4.88;;;2.75;;
19826;SDS011;10074;52.018;4.726;2023-10-13T18:05:58;2.95;;;2.00;;
19826;SDS011;10074;52.018;4.726;2023-10-13T18:10:59;8.32;;;3.13;;
19826;SDS011;10074;52.018;4.726;2023-10-13T18:16:11;2.78;;;2.30;;
19826;SDS011;10074;52.018;4.726;2023-10-13T18:21:22;3.00;;;2.40;;
19826;SDS011;10074;52.018;4.726;2023-10-13T18:26:23;6.78;;;2.70;;
19826;SDS011;10074;52.018;4.726;2023-10-13T18:31:25;3.67;;;2.92;;
19826;SDS011;10074;52.018;4.726;2023-10-13T18:36:27;3.25;;;2.63;;
19826;SDS011;10074;52.018;4.726;2023-10-13T18:41:28;2.70;;;2.50;;
19826;SDS011;10074;52.018;4.726;2023-10-13T18:46:30;3.45;;;2.83;;
19826;SDS011;10074;52.018;4.726;2023-10-13T18:51:30;6.25;;;2.20;;
19826;SDS011;10074;52.018;4.726;2023-10-13T18:56:32;5.07;;;2.85;;
19826;SDS011;10074;52.018;4.726;2023-10-13T19:01:33;5.72;;;2.45;;
19826;SDS011;10074;52.018;4.726;2023-10-13T19:06:34;5.22;;;3.47;;
19826;SDS011;10074;52.018;4.726;2023-10-13T19:11:35;7.18;;;2.28;;
19826;SDS011;10074;52.018;4.726;2023-10-13T19:16:40;3.67;;;2.28;;
19826;SDS011;10074;52.018;4.726;2023-10-13T19:21:41;9.68;;;3.55;;
19826;SDS011;10074;52.018;4.726;2023-10-13T19:26:46;4.47;;;3.60;;
19826;SDS011;10074;52.018;4.726;2023-10-13T19:31:46;10.48;;;3.55;;
19826;SDS011;10074;52.018;4.726;2023-10-13T19:36:47;8.25;;;4.00;;
19826;SDS011;10074;52.018;4.726;2023-10-13T19:41:47;7.15;;;2.97;;
19826;SDS011;10074;52.018;4.726;2023-10-13T19:46:47;5.93;;;4.00;;
19826;SDS011;10074;52.018;4.726;2023-10-13T19:51:48;8.55;;;3.33;;
19826;SDS011;10074;52.018;4.726;2023-10-13T19:56:48;4.00;;;3.20;;
19826;SDS011;10074;52.018;4.726;2023-10-13T20:01:51;11.65;;;3.70;;
19826;SDS011;10074;52.018;4.726;2023-10-13T20:06:52;6.63;;;4.30;;
19826;SDS011;10074;52.018;4.726;2023-10-13T20:11:56;3.83;;;3.28;;
19826;SDS011;10074;52.018;4.726;2023-10-13T20:16:58;5.60;;;3.60;;
19826;SDS011;10074;52.018;4.726;2023-10-13T20:22:01;4.22;;;2.83;;
19826;SDS011;10074;52.018;4.726;2023-10-13T20:27:11;4.60;;;3.08;;
19826;SDS011;10074;52.018;4.726;2023-10-13T20:32:11;3.05;;;2.40;;
19826;SDS011;10074;52.018;4.726;2023-10-13T20:37:16;7.22;;;3.85;;
19826;SDS011;10074;52.018;4.726;2023-10-13T20:42:18;4.20;;;2.33;;
19826;SDS011;10074;52.018;4.726;2023-10-13T20:47:18;8.70;;;3.28;;
19826;SDS011;10074;52.018;4.726;2023-10-13T20:52:19;3.05;;;2.75;;
19826;SDS011;10074;52.018;4.726;2023-10-13T20:57:19;5.10;;;3.33;;
19826;SDS011;10074;52.018;4.726;2023-10-13T21:02:22;8.85;;;2.90;;
19826;SDS011;10074;52.018;4.726;2023-10-13T21:07:22;4.35;;;2.55;;
19826;SDS011;10074;52.018;4.726;2023-10-13T21:12:24;8.48;;;2.58;;
19826;SDS011;10074;52.018;4.726;2023-10-13T21:17:24;3.10;;;2.42;;
19826;SDS011;10074;52.018;4.726;2023-10-13T21:22:25;5.85;;;2.75;;
19826;SDS011;10074;52.018;4.726;2023-10-13T21:27:27;3.80;;;2.60;;
19826;SDS011;10074;52.018;4.726;2023-10-13T21:32:31;2.78;;;2.13;;
19826;SDS011;10074;52.018;4.726;2023-10-13T21:37:31;7.22;;;2.78;;
19826;SDS011;10074;52.018;4.726;2023-10-13T21:42:32;3.75;;;2.10;;
19826;SDS011;10074;52.018;4.726;2023-10-13T21:47:32;3.08;;;2.05;;
19826;SDS011;10074;52.018;4.726;2023-10-13T21:52:32;2.45;;;1.60;;
19826;SDS011;10074;52.018;4.726;2023-10-13T21:57:34;2.78;;;2.08;;
19826;SDS011;10074;52.018;4.726;2023-10-13T22:02:34;8.65;;;2.28;;
19826;SDS011;10074;52.018;4.726;2023-10-13T22:07:35;2.15;;;1.80;;
19826;SDS011;10074;52.018;4.726;2023-10-13T22:12:35;4.95;;;2.58;;
19826;SDS011;10074;52.018;4.726;2023-10-13T22:17:37;9.52;;;3.63;;
19826;SDS011;10074;52.018;4.726;2023-10-13T22:22:38;2.45;;;1.60;;
19826;SDS011;10074;52.018;4.726;2023-10-13T22:27:39;9.63;;;1.90;;
19826;SDS011;10074;52.018;4.726;2023-10-13T22:32:46;3.03;;;2.53;;
19826;SDS011;10074;52.018;4.726;2023-10-13T22:37:49;1.05;;;0.98;;
19826;SDS011;10074;52.018;4.726;2023-10-13T22:42:51;1.33;;;0.82;;
19826;SDS011;10074;52.018;4.726;2023-10-13T22:47:53;1.65;;;1.38;;
19826;SDS011;10074;52.018;4.726;2023-10-13T22:52:54;3.33;;;1.48;;
19826;SDS011;10074;52.018;4.726;2023-10-13T22:58:00;1.40;;;1.30;;
19826;SDS011;10074;52.018;4.726;2023-10-13T23:03:01;4.68;;;1.15;;
19826;SDS011;10074;52.018;4.726;2023-10-13T23:08:02;2.90;;;1.70;;
19826;SDS011;10074;52.018;4.726;2023-10-13T23:13:20;2.92;;;1.15;;
19826;SDS011;10074;52.018;4.726;2023-10-13T23:18:21;0.88;;;0.88;;
19826;SDS011;10074;52.018;4.726;2023-10-13T23:23:23;2.60;;;1.35;;
19826;SDS011;10074;52.018;4.726;2023-10-13T23:28:25;0.73;;;0.68;;
19826;SDS011;10074;52.018;4.726;2023-10-13T23:33:25;2.75;;;0.88;;
19826;SDS011;10074;52.018;4.726;2023-10-13T23:38:26;2.45;;;0.80;;
19826;SDS011;10074;52.018;4.726;2023-10-13T23:43:26;1.50;;;0.77;;
19826;SDS011;10074;52.018;4.726;2023-10-13T23:48:31;2.03;;;1.25;;
19826;SDS011;10074;52.018;4.726;2023-10-13T23:53:35;1.23;;;1.00;;
19826;SDS011;10074;52.018;4.726;2023-10-13T23:58:37;2.38;;;1.38;;
